This is the latest recevied weather packets stored in our database for station/object XE2RCS-21. If no packets are shown the sender has not sent any weather packets the latest 10 day(s).
| Time | Temp. | Humidity | Pressure | Rain* | Wind** | Luminosity | Snow |
|---|---|---|---|---|---|---|---|
| 1777462222 | 25.56° C | 51% | 1020.9 hPa | - | - | - | - |
| 1777460422 | 26.67° C | 48% | 1020.6 hPa | - | - | - | - |
| 1777458621 | 26.11° C | 49% | 1020.3 hPa | - | - | - | - |
| 1777456820 | 26.11° C | 48% | 1020.5 hPa | - | - | - | - |
| 1777455021 | 25.56° C | 51% | 1020.7 hPa | - | - | - | - |
| 1777453221 | 25.56° C | 54% | 1020.6 hPa | - | - | - | - |
| 1777451421 | 25.56° C | 68% | 1020.8 hPa | - | - | - | - |
| 1777449621 | 25.56° C | 84% | 1020.5 hPa | - | - | - | - |
| 1777447820 | 25.56° C | 100% | 1020.1 hPa | - | - | - | - |
| 1777446020 | 26.11° C | 100% | 1020.7 hPa | - | - | - | - |
| 1777444220 | 25.56° C | 100% | 1021 hPa | - | - | - | - |
| 1777442420 | 26.67° C | 76% | 1021.7 hPa | - | - | - | - |
| 1777440620 | 25° C | 100% | 1019.4 hPa | - | - | - | - |
| 1777438820 | 26.11° C | 100% | 1020.1 hPa | - | - | - | - |
| 1777437019 | 25.56° C | 100% | 1019.2 hPa | - | - | - | - |
| 1777435219 | 25° C | 100% | 1019.3 hPa | - | - | - | - |
| 1777433443 | 28.89° C | 100% | 1020.9 hPa | - | - | - | - |
| 1777431643 | 28.89° C | 51% | 1021.7 hPa | - | - | - | - |
| 1777429843 | 29.44° C | 41% | 1021.4 hPa | - | - | - | - |
| 1777428043 | 30.56° C | 61% | 1021.1 hPa | - | - | - | - |
| 1777426243 | 29.44° C | 56% | 1020.8 hPa | - | - | - | - |
| 1777424443 | 31.11° C | 34% | 1020.7 hPa | - | - | - | - |
| 1777422643 | 32.78° C | 31% | 1020.7 hPa | - | - | - | - |
| 1777420843 | 33.33° C | 29% | 1020.3 hPa | - | - | - | - |
* Rain since midnight (hover to see other rain measurements)
** Current wind speed in m/s (hover to see current wind gust speed)